Time,TemperatureF,DewpointF,PressureIn,WindDirection,WindDirectionDegrees,WindSpeedMPH,WindSpeedGustMPH,Humidity,HourlyPrecipIn,Conditions,Clouds,dailyrainin,SolarRadiationWatts/m^2,SoftwareType,DateUTC
2013-02-08 00:11:00,25.0,13.0,-100.00,SSW,198,0.0,3.0,60,0.00,,,0.00,0.000000,,2013-02-08 07:11:00,
2013-02-08 00:21:00,25.0,13.0,-100.00,SSW,198,0.0,3.0,60,0.00,,,0.00,0.000000,,2013-02-08 07:21:00,
2013-02-08 00:31:00,25.0,13.0,-100.00,SSW,198,0.0,3.0,60,0.00,,,0.00,0.000000,,2013-02-08 07:31:00,
2013-02-08 00:42:00,25.0,13.0,-100.00,SSW,198,0.0,3.0,60,0.00,,,0.00,0.000000,,2013-02-08 07:42:00,
2013-02-08 00:51:00,22.0,13.0,-100.00,NE,47,0.0,3.0,69,0.00,,,0.00,0.000000,,2013-02-08 07:51:00,
2013-02-08 01:11:00,22.0,13.0,-100.00,NE,47,0.0,3.0,69,0.00,,,0.00,0.000000,,2013-02-08 08:11:00,
2013-02-08 01:21:00,22.0,13.0,-100.00,NE,47,0.0,3.0,69,0.00,,,0.00,0.000000,,2013-02-08 08:21:00,
2013-02-08 01:32:00,22.0,13.0,-100.00,NE,47,0.0,3.0,69,0.00,,,0.00,0.000000,,2013-02-08 08:32:00,
2013-02-08 01:41:00,22.0,13.0,-100.00,NE,47,0.0,3.0,69,0.00,,,0.00,0.000000,,2013-02-08 08:41:00,
2013-02-08 01:51:00,22.0,10.0,-100.00,ENE,75,2.0,4.0,60,0.00,,,0.00,0.000000,,2013-02-08 08:51:00,
2013-02-08 02:21:00,22.0,10.0,-100.00,ENE,75,2.0,4.0,60,0.00,,,0.00,0.000000,,2013-02-08 09:21:00,
2013-02-08 02:31:00,22.0,10.0,-100.00,ENE,75,2.0,4.0,60,0.00,,,0.00,0.000000,,2013-02-08 09:31:00,
2013-02-08 02:42:00,22.0,10.0,-100.00,ENE,75,2.0,4.0,60,0.00,,,0.00,0.000000,,2013-02-08 09:42:00,
2013-02-08 02:51:00,24.0,11.0,-100.00,South,188,1.0,8.0,58,0.00,,,0.00,0.000000,,2013-02-08 09:51:00,
2013-02-08 03:22:00,24.0,11.0,-100.00,South,188,1.0,8.0,58,0.00,,,0.00,0.000000,,2013-02-08 10:22:00,
2013-02-08 03:31:00,24.0,11.0,-100.00,South,188,1.0,8.0,58,0.00,,,0.00,0.000000,,2013-02-08 10:31:00,
2013-02-08 03:41:00,24.0,11.0,-100.00,South,188,1.0,8.0,58,0.00,,,0.00,0.000000,,2013-02-08 10:41:00,
2013-02-08 03:51:00,22.0,10.0,-100.00,NNW,348,5.0,8.0,60,-99.99,,,0.00,0.000000,,2013-02-08 10:51:00,
2013-02-08 04:21:00,22.0,10.0,-100.00,NNW,348,5.0,8.0,60,-99.99,,,0.00,0.000000,,2013-02-08 11:21:00,
2013-02-08 04:32:00,22.0,10.0,-100.00,NNW,348,5.0,8.0,60,-99.99,,,0.00,0.000000,,2013-02-08 11:32:00,
2013-02-08 04:41:00,22.0,10.0,-100.00,NNW,348,5.0,8.0,60,-99.99,,,0.00,0.000000,,2013-02-08 11:41:00,
2013-02-08 04:51:00,22.0,11.0,-100.00,East,96,3.0,10.0,61,0.00,,,0.00,0.000000,,2013-02-08 11:51:00,
2013-02-08 05:11:00,22.0,11.0,-100.00,East,96,3.0,10.0,61,0.00,,,0.00,0.000000,,2013-02-08 12:11:00,
2013-02-08 05:22:00,22.0,11.0,-100.00,East,96,3.0,10.0,61,0.00,,,0.00,0.000000,,2013-02-08 12:22:00,
2013-02-08 05:32:00,22.0,11.0,-100.00,East,96,3.0,10.0,61,0.00,,,0.00,0.000000,,2013-02-08 12:32:00,
2013-02-08 05:42:00,22.0,11.0,-100.00,East,96,3.0,10.0,61,0.00,,,0.00,0.000000,,2013-02-08 12:42:00,
2013-02-08 05:51:00,22.0,11.0,-100.00,East,93,5.0,11.0,62,0.00,,,0.00,0.000000,,2013-02-08 12:51:00,
2013-02-08 06:11:00,22.0,11.0,-100.00,East,93,5.0,11.0,62,0.00,,,0.00,0.000000,,2013-02-08 13:11:00,
2013-02-08 06:21:00,22.0,11.0,-100.00,East,93,5.0,11.0,62,0.00,,,0.00,0.000000,,2013-02-08 13:21:00,
2013-02-08 06:32:00,22.0,11.0,-100.00,East,93,5.0,11.0,62,0.00,,,0.00,0.000000,,2013-02-08 13:32:00,
2013-02-08 06:42:00,22.0,11.0,-100.00,East,93,5.0,11.0,62,0.00,,,0.00,0.000000,,2013-02-08 13:42:00,
2013-02-08 06:51:00,22.0,11.0,-100.00,ESE,110,2.0,12.0,62,0.00,,,0.00,0.000000,,2013-02-08 13:51:00,
2013-02-08 07:11:00,22.0,11.0,-100.00,ESE,110,2.0,12.0,62,0.00,,,0.00,0.000000,,2013-02-08 14:11:00,
2013-02-08 07:21:00,22.0,11.0,-100.00,ESE,110,2.0,12.0,62,0.00,,,0.00,0.000000,,2013-02-08 14:21:00,
2013-02-08 07:32:00,22.0,11.0,-100.00,ESE,110,2.0,12.0,62,0.00,,,0.00,0.000000,,2013-02-08 14:32:00,
2013-02-08 07:41:00,22.0,11.0,-100.00,ESE,110,2.0,12.0,62,0.00,,,0.00,0.000000,,2013-02-08 14:41:00,
2013-02-08 07:51:00,25.0,11.0,-100.00,ESE,104,6.0,10.0,54,0.00,,,0.00,5.000000,,2013-02-08 14:51:00,
2013-02-08 08:11:00,25.0,11.0,-100.00,ESE,104,6.0,10.0,54,0.00,,,0.00,5.000000,,2013-02-08 15:11:00,
2013-02-08 08:21:00,25.0,11.0,-100.00,ESE,104,6.0,10.0,54,0.00,,,0.00,5.000000,,2013-02-08 15:21:00,
2013-02-08 08:32:00,25.0,11.0,-100.00,ESE,104,6.0,10.0,54,0.00,,,0.00,5.000000,,2013-02-08 15:32:00,
2013-02-08 08:41:00,25.0,11.0,-100.00,ESE,104,6.0,10.0,54,0.00,,,0.00,5.000000,,2013-02-08 15:41:00,
2013-02-08 08:51:00,29.0,12.0,-100.00,East,90,5.0,10.0,49,0.00,,,0.00,180.000000,,2013-02-08 15:51:00,
2013-02-08 09:21:00,29.0,12.0,-100.00,East,90,5.0,10.0,49,0.00,,,0.00,180.000000,,2013-02-08 16:21:00,
2013-02-08 09:32:00,29.0,12.0,-100.00,East,90,5.0,10.0,49,0.00,,,0.00,180.000000,,2013-02-08 16:32:00,
2013-02-08 09:41:00,29.0,12.0,-100.00,East,90,5.0,10.0,49,0.00,,,0.00,180.000000,,2013-02-08 16:41:00,
2013-02-08 10:51:00,37.0,14.0,-100.00,WNW,291,2.0,10.0,39,-99.99,,,0.00,580.000000,,2013-02-08 17:51:00,
2013-02-08 11:12:00,37.0,14.0,-100.00,WNW,291,2.0,10.0,39,-99.99,,,0.00,580.000000,,2013-02-08 18:12:00,
2013-02-08 11:24:00,37.0,14.0,-100.00,WNW,291,2.0,10.0,39,-99.99,,,0.00,580.000000,,2013-02-08 18:24:00,
2013-02-08 11:33:00,37.0,14.0,-100.00,WNW,291,2.0,10.0,39,-99.99,,,0.00,580.000000,,2013-02-08 18:33:00,
2013-02-08 11:42:00,37.0,14.0,-100.00,WNW,291,2.0,10.0,39,-99.99,,,0.00,580.000000,,2013-02-08 18:42:00,
2013-02-08 11:51:00,45.0,18.0,-100.00,SSE,147,2.0,9.0,33,0.00,,,0.00,664.000000,,2013-02-08 18:51:00,
2013-02-08 12:22:00,45.0,18.0,-100.00,SSE,147,2.0,9.0,33,0.00,,,0.00,664.000000,,2013-02-08 19:22:00,
2013-02-08 12:32:00,45.0,18.0,-100.00,SSE,147,2.0,9.0,33,0.00,,,0.00,664.000000,,2013-02-08 19:32:00,
2013-02-08 12:42:00,45.0,18.0,-100.00,SSE,147,2.0,9.0,33,0.00,,,0.00,664.000000,,2013-02-08 19:42:00,
2013-02-08 12:51:00,46.0,18.0,-100.00,SE,129,3.0,9.0,32,0.00,,,0.00,632.000000,,2013-02-08 19:51:00,
2013-02-08 13:11:00,46.0,18.0,-100.00,SE,129,3.0,9.0,32,0.00,,,0.00,632.000000,,2013-02-08 20:11:00,
2013-02-08 13:21:00,46.0,18.0,-100.00,SE,129,3.0,9.0,32,0.00,,,0.00,632.000000,,2013-02-08 20:21:00,
2013-02-08 13:31:00,46.0,18.0,-100.00,SE,129,3.0,9.0,32,0.00,,,0.00,632.000000,,2013-02-08 20:31:00,
2013-02-08 13:41:00,46.0,18.0,-100.00,SE,129,3.0,9.0,32,0.00,,,0.00,632.000000,,2013-02-08 20:41:00,
2013-02-08 13:51:00,46.0,15.0,-100.00,South,191,4.0,9.0,28,0.00,,,0.00,490.000000,,2013-02-08 20:51:00,
2013-02-08 14:11:00,46.0,15.0,-100.00,South,191,4.0,9.0,28,0.00,,,0.00,490.000000,,2013-02-08 21:11:00,
2013-02-08 14:21:00,46.0,15.0,-100.00,South,191,4.0,9.0,28,0.00,,,0.00,490.000000,,2013-02-08 21:21:00,
2013-02-08 14:32:00,46.0,15.0,-100.00,South,191,4.0,9.0,28,0.00,,,0.00,490.000000,,2013-02-08 21:32:00,
2013-02-08 14:41:00,46.0,15.0,-100.00,South,191,4.0,9.0,28,0.00,,,0.00,490.000000,,2013-02-08 21:41:00,
2013-02-08 14:51:00,45.0,20.0,-100.00,SSW,212,14.0,32.0,36,0.00,,,0.00,272.000000,,2013-02-08 21:51:00,
2013-02-08 15:11:00,45.0,20.0,-100.00,SSW,212,14.0,32.0,36,0.00,,,0.00,272.000000,,2013-02-08 22:11:00,
2013-02-08 15:21:00,45.0,20.0,-100.00,SSW,212,14.0,32.0,36,0.00,,,0.00,272.000000,,2013-02-08 22:21:00,
2013-02-08 15:31:00,45.0,20.0,-100.00,SSW,212,14.0,32.0,36,0.00,,,0.00,272.000000,,2013-02-08 22:31:00,
2013-02-08 15:41:00,45.0,20.0,-100.00,SSW,212,14.0,32.0,36,0.00,,,0.00,272.000000,,2013-02-08 22:41:00,
2013-02-08 15:51:00,45.0,19.0,-100.00,WSW,237,6.0,19.0,35,0.00,,,0.00,162.000000,,2013-02-08 22:51:00,
2013-02-08 16:11:00,45.0,19.0,-100.00,WSW,237,6.0,19.0,35,0.00,,,0.00,162.000000,,2013-02-08 23:11:00,
2013-02-08 16:21:00,45.0,19.0,-100.00,WSW,237,6.0,19.0,35,0.00,,,0.00,162.000000,,2013-02-08 23:21:00,
2013-02-08 16:31:00,45.0,19.0,-100.00,WSW,237,6.0,19.0,35,0.00,,,0.00,162.000000,,2013-02-08 23:31:00,
2013-02-08 16:41:00,45.0,19.0,-100.00,WSW,237,6.0,19.0,35,0.00,,,0.00,162.000000,,2013-02-08 23:41:00,
2013-02-08 16:51:00,45.0,18.0,-100.00,WNW,287,2.0,28.0,33,0.00,,,0.00,87.000000,,2013-02-08 23:51:00,
2013-02-08 17:11:00,45.0,18.0,-100.00,WNW,287,2.0,28.0,33,0.00,,,0.00,87.000000,,2013-02-09 00:11:00,
2013-02-08 17:21:00,45.0,18.0,-100.00,WNW,287,2.0,28.0,33,0.00,,,0.00,87.000000,,2013-02-09 00:21:00,
2013-02-08 17:32:00,45.0,18.0,-100.00,WNW,287,2.0,28.0,33,0.00,,,0.00,87.000000,,2013-02-09 00:32:00,
2013-02-08 17:41:00,45.0,18.0,-100.00,WNW,287,2.0,28.0,33,0.00,,,0.00,87.000000,,2013-02-09 00:41:00,
2013-02-08 17:51:00,43.0,19.0,-100.00,NNW,348,2.0,6.0,37,0.00,,,0.00,32.000000,,2013-02-09 00:51:00,
2013-02-08 18:11:00,43.0,19.0,-100.00,NNW,348,2.0,6.0,37,0.00,,,0.00,32.000000,,2013-02-09 01:11:00,
2013-02-08 18:21:00,43.0,19.0,-100.00,NNW,348,2.0,6.0,37,0.00,,,0.00,32.000000,,2013-02-09 01:21:00,
2013-02-08 18:31:00,43.0,19.0,-100.00,NNW,348,2.0,6.0,37,0.00,,,0.00,32.000000,,2013-02-09 01:31:00,
2013-02-08 18:41:00,43.0,19.0,-100.00,NNW,348,2.0,6.0,37,0.00,,,0.00,32.000000,,2013-02-09 01:41:00,
2013-02-08 18:51:00,41.0,22.0,-100.00,West,271,5.0,7.0,46,0.00,,,0.00,0.000000,,2013-02-09 01:51:00,
2013-02-08 19:21:00,41.0,22.0,-100.00,West,271,5.0,7.0,46,0.00,,,0.00,0.000000,,2013-02-09 02:21:00,
2013-02-08 19:32:00,41.0,22.0,-100.00,West,271,5.0,7.0,46,0.00,,,0.00,0.000000,,2013-02-09 02:32:00,
2013-02-08 19:41:00,41.0,22.0,-100.00,West,271,5.0,7.0,46,0.00,,,0.00,0.000000,,2013-02-09 02:41:00,
2013-02-08 19:51:00,41.0,24.0,-100.00,SSE,166,5.0,22.0,50,0.00,,,0.00,0.000000,,2013-02-09 02:51:00,
2013-02-08 20:11:00,41.0,24.0,-100.00,SSE,166,5.0,22.0,50,0.00,,,0.00,0.000000,,2013-02-09 03:11:00,
2013-02-08 20:21:00,41.0,24.0,-100.00,SSE,166,5.0,22.0,50,0.00,,,0.00,0.000000,,2013-02-09 03:21:00,
2013-02-08 20:32:00,41.0,24.0,-100.00,SSE,166,5.0,22.0,50,0.00,,,0.00,0.000000,,2013-02-09 03:32:00,
2013-02-08 20:41:00,41.0,24.0,-100.00,SSE,166,5.0,22.0,50,0.00,,,0.00,0.000000,,2013-02-09 03:41:00,
2013-02-08 20:51:00,39.0,23.0,-100.00,WNW,282,7.0,12.0,53,0.00,,,0.00,0.000000,,2013-02-09 03:51:00,
2013-02-08 21:23:00,39.0,23.0,-100.00,WNW,282,7.0,12.0,53,0.00,,,0.00,0.000000,,2013-02-09 04:23:00,
2013-02-08 21:32:00,39.0,23.0,-100.00,WNW,282,7.0,12.0,53,0.00,,,0.00,0.000000,,2013-02-09 04:32:00,
2013-02-08 21:42:00,39.0,23.0,-100.00,WNW,282,7.0,12.0,53,0.00,,,0.00,0.000000,,2013-02-09 04:42:00,
2013-02-08 21:51:00,39.0,22.0,-100.00,West,262,13.0,19.0,51,0.00,,,0.00,0.000000,,2013-02-09 04:51:00,
2013-02-08 22:22:00,39.0,22.0,-100.00,West,262,13.0,19.0,51,0.00,,,0.00,0.000000,,2013-02-09 05:22:00,
2013-02-08 22:31:00,39.0,22.0,-100.00,West,262,13.0,19.0,51,0.00,,,0.00,0.000000,,2013-02-09 05:31:00,
2013-02-08 22:41:00,39.0,22.0,-100.00,West,262,13.0,19.0,51,0.00,,,0.00,0.000000,,2013-02-09 05:41:00,
2013-02-08 23:51:00,34.0,25.0,-100.00,WSW,242,12.0,-999.0,70,-99.99,,,0.00,,,2013-02-09 06:51:00,